CheckWX is a tool to help pilots better visualize weather data.  It is not intended as a substitute for an official pre-flight weather briefing.

12:37:51 UTC

KLAR METAR
Laramie Regional Airport
Laramie, Wyoming, USA
Current

45 mins ago

KLAR 181153Z AUTO 14015KT 9SM SCT006 M18/M19 A2988 RMK AO2 SLP196 60000 I6000 T11781194 11150 21178 53001
Observed
Feb-18 @ 11:53 UTC
Wind
  • 140° at 15 KTS
Visibility
9 SM
Flight Rules
VFR
Cloud Levels
  • Scattered at 600' AGL
Temperature
-18°C / -0°F
Dewpoint
-19°C / -2°F
Humidity
92%
Altimeter
29.88" Hg
Pressure
1019.6 hPa
Previous

2 hours ago

KLAR 181053Z AUTO 14013KT 7SM OVC007 M17/M18 A2988 RMK AO2 UPE0954 SLP192 P0000 I1000 T11671183
Observed
Feb-18 @ 10:53 UTC
Wind
  • 140° at 13 KTS
Visibility
7 SM
Flight Rules
IFR
Cloud Levels
  • Overcast at 700' AGL
Temperature
-17°C / 1°F
Dewpoint
-18°C / -0°F
Humidity
92%
Altimeter
29.88" Hg
Pressure
1019.2 hPa
Current Rain
0.01"
Previous

3 hours ago

KLAR 180953Z AUTO 14015KT 4SM UP BR OVC006 M16/M17 A2988 RMK AO2 UPB06E14B34SNE06 SLP188 P0000 T11611172
Observed
Feb-18 @ 09:53 UTC
Wind
  • 140° at 15 KTS
Visibility
4 SM
Flight Rules
IFR
Conditions
Mist, Unknown precipitation
Cloud Levels
  • Overcast at 600' AGL
Temperature
-16°C / 3°F
Dewpoint
-17°C / 1°F
Humidity
92%
Altimeter
29.88" Hg
Pressure
1018.8 hPa
Current Rain
0.01"